Time;durP1;ratioP1;P1;durP2;ratioP2;P2;SDS_P1;SDS_P2;PMS_P1;PMS_P2;Temp;Humidity;BMP_temperature;BMP_pressure;BME280_temperature;BME280_humidity;BME280_pressure;Samples;Min_cycle;Max_cycle;Signal;HPM_P1;HPM_P2
2023/07/15 00:00:56;;;;;;;7.22;4.13;;;;;;;18.78;100.00;100088.97;4966276;28;20043;-73
2023/07/15 00:03:21;;;;;;;9.32;3.83;;;;;;;18.74;100.00;100102.09;4960019;28;20025;-74
2023/07/15 00:05:49;;;;;;;6.80;4.47;;;;;;;18.84;100.00;100039.34;4942926;28;20027;-75
2023/07/15 00:08:15;;;;;;;6.57;3.78;;;;;;;18.87;100.00;100014.56;4964658;28;20019;-73
2023/07/15 00:10:42;;;;;;;;;;;;;;;18.84;100.00;99966.34;4962669;28;20948;-74
2023/07/15 00:13:13;;;;;;;9.15;3.97;;;;;;;18.80;100.00;99948.97;4955995;28;20584;-74
2023/07/15 00:15:39;;;;;;;7.80;3.63;;;;;;;18.77;100.00;99934.00;4963319;28;20069;-74
2023/07/15 00:18:06;;;;;;;6.43;3.80;;;;;;;18.71;100.00;99910.59;4962219;28;20034;-75
2023/07/15 00:20:31;;;;;;;6.57;4.32;;;;;;;18.73;100.00;99931.97;4966452;28;20034;-74
2023/07/15 00:22:57;;;;;;;7.63;4.17;;;;;;;18.71;100.00;99948.44;4960854;28;20047;-75
2023/07/15 00:25:24;;;;;;;6.00;3.97;;;;;;;18.70;100.00;99933.25;4963172;28;20290;-74
2023/07/15 00:27:49;;;;;;;8.63;3.95;;;;;;;18.66;100.00;99920.47;4960977;28;20062;-73
2023/07/15 00:30:17;;;;;;;5.20;4.00;;;;;;;18.63;100.00;99932.56;4961514;28;20072;-74
2023/07/15 00:32:48;;;;;;;7.82;3.67;;;;;;;18.65;100.00;99945.84;4956868;28;20027;-74
2023/07/15 00:35:25;;;;;;;7.63;3.88;;;;;;;18.68;100.00;99929.16;4964576;28;20031;-75
2023/07/15 00:37:51;;;;;;;6.72;4.47;;;;;;;18.65;100.00;99891.78;4959789;28;20062;-74
2023/07/15 00:40:17;;;;;;;6.63;3.70;;;;;;;18.62;100.00;99900.38;4965440;28;20608;-74
2023/07/15 00:42:52;;;;;;;4.78;3.88;;;;;;;18.50;100.00;99857.13;4961701;28;20070;-74
2023/07/15 00:45:18;;;;;;;7.15;3.90;;;;;;;18.49;100.00;99844.66;4964845;28;20054;-74
2023/07/15 00:48:04;;;;;;;8.80;3.87;;;;;;;18.47;100.00;99853.03;4959833;28;20929;-74
2023/07/15 00:50:30;;;;;;;7.53;4.10;;;;;;;18.49;100.00;99831.97;4962188;28;20065;-74
2023/07/15 00:52:55;;;;;;;6.65;4.60;;;;;;;18.44;100.00;99814.84;4958174;28;20454;-73
2023/07/15 00:55:22;;;;;;;6.82;3.35;;;;;;;18.46;100.00;99805.44;4959604;28;20101;-74
2023/07/15 00:57:48;;;;;;;4.68;3.58;;;;;;;18.38;100.00;99835.53;4959354;28;20469;-74
2023/07/15 01:00:14;;;;;;;4.97;3.90;;;;;;;18.45;100.00;99847.03;4962114;28;20503;-74
2023/07/15 01:02:41;;;;;;;5.22;3.58;;;;;;;18.46;100.00;99770.28;4960113;28;20454;-74
2023/07/15 01:05:08;;;;;;;6.25;4.13;;;;;;;18.41;100.00;99762.09;4965385;28;20039;-74
2023/07/15 01:07:34;;;;;;;7.57;3.47;;;;;;;18.41;100.00;99756.69;4953757;28;20027;-74
2023/07/15 01:10:03;;;;;;;8.43;4.50;;;;;;;18.50;100.00;99751.75;4964353;28;20053;-74
2023/07/15 01:12:28;;;;;;;7.50;4.47;;;;;;;18.52;100.00;99712.59;4959148;28;20027;-74
2023/07/15 01:14:55;;;;;;;6.50;4.10;;;;;;;18.44;100.00;99702.16;4978373;28;20051;-74
2023/07/15 01:17:21;;;;;;;7.63;4.25;;;;;;;18.41;100.00;99721.56;4961771;28;20023;-74
2023/07/15 01:19:49;;;;;;;6.47;4.13;;;;;;;18.43;100.00;99729.44;4977822;28;20043;-74
2023/07/15 01:22:16;;;;;;;6.50;3.80;;;;;;;18.51;100.00;99686.63;4954475;28;20035;-74
2023/07/15 01:24:41;;;;;;;9.55;4.15;;;;;;;18.67;100.00;99593.13;4956016;28;20043;-74
2023/07/15 01:27:08;;;;;;;5.53;3.30;;;;;;;18.68;100.00;99566.91;4979949;28;20468;-74
2023/07/15 01:29:33;;;;;;;4.85;3.35;;;;;;;18.58;100.00;99548.63;4964072;28;20033;-74
2023/07/15 01:32:00;;;;;;;7.55;3.38;;;;;;;18.71;100.00;99566.44;4960209;28;20661;-74
2023/07/15 01:34:26;;;;;;;4.83;3.30;;;;;;;18.69;100.00;99533.41;4947978;28;20163;-74
2023/07/15 01:36:51;;;;;;;5.57;3.47;;;;;;;18.70;100.00;99516.94;4940116;28;20023;-74
2023/07/15 01:39:17;;;;;;;8.00;3.87;;;;;;;18.69;100.00;99487.47;4958240;28;20023;-74
2023/07/15 01:41:43;;;;;;;7.50;3.58;;;;;;;18.69;100.00;99495.56;4959600;28;20033;-74
2023/07/15 01:44:10;;;;;;;10.43;3.92;;;;;;;18.69;100.00;99476.66;4961745;28;20964;-74
2023/07/15 01:46:38;;;;;;;8.77;3.75;;;;;;;18.66;100.00;99504.16;4961182;28;20023;-74
2023/07/15 01:49:04;;;;;;;6.45;3.30;;;;;;;18.59;100.00;99514.31;4932293;28;20045;-73
2023/07/15 01:51:31;;;;;;;6.18;4.00;;;;;;;18.66;100.00;99507.69;4962481;28;20081;-74
2023/07/15 01:53:58;;;;;;;5.45;3.83;;;;;;;18.67;100.00;99452.56;4963670;28;20031;-74
2023/07/15 01:56:24;;;;;;;8.65;3.38;;;;;;;18.68;100.00;99448.81;4960757;28;20034;-74
2023/07/15 01:58:49;;;;;;;5.75;3.10;;;;;;;18.67;100.00;99400.38;4962701;28;20035;-74
2023/07/15 02:01:15;;;;;;;4.77;3.10;;;;;;;18.70;100.00;99392.56;4957279;28;20027;-74
2023/07/15 02:03:40;;;;;;;5.63;3.37;;;;;;;18.63;100.00;99396.53;4966683;28;20072;-73
2023/07/15 02:06:06;;;;;;;5.10;3.77;;;;;;;18.64;100.00;99385.47;4965980;28;20397;-74
2023/07/15 02:08:32;;;;;;;6.40;3.67;;;;;;;18.67;100.00;99357.94;4968587;28;20499;-74
2023/07/15 02:10:58;;;;;;;5.18;3.33;;;;;;;18.74;100.00;99279.38;4962055;28;20030;-75
2023/07/15 02:13:23;;;;;;;5.72;2.85;;;;;;;18.88;97.58;99202.22;4940771;28;20122;-74
2023/07/15 02:15:48;;;;;;;6.22;3.65;;;;;;;18.92;96.12;99146.59;4960011;28;20024;-75
2023/07/15 02:18:15;;;;;;;4.80;3.03;;;;;;;18.98;94.79;99117.69;4983924;28;20038;-74
2023/07/15 02:20:42;;;;;;;5.80;3.47;;;;;;;19.03;93.38;99068.22;4965001;28;20031;-75
2023/07/15 02:23:09;;;;;;;5.93;3.40;;;;;;;19.05;92.89;99057.97;4956939;28;20042;-74
2023/07/15 02:25:34;;;;;;;4.85;3.13;;;;;;;19.03;92.63;99054.72;4962940;28;20030;-74
2023/07/15 02:28:00;;;;;;;5.93;3.67;;;;;;;19.01;92.03;99029.81;4967200;28;20042;-74
2023/07/15 02:30:26;;;;;;;;;;;;;;;18.95;91.98;99047.91;4968090;28;20436;-74
2023/07/15 02:32:54;;;;;;;5.53;3.60;;;;;;;18.92;92.04;99045.72;4980305;28;19915;-74
2023/07/15 02:35:20;;;;;;;4.68;3.20;;;;;;;18.90;92.36;99062.19;4964553;28;20170;-74
2023/07/15 02:37:48;;;;;;;8.20;3.17;;;;;;;18.92;92.00;99070.88;4959887;28;20095;-74
2023/07/15 02:40:17;;;;;;;8.30;3.70;;;;;;;18.81;92.49;99088.06;4960719;28;20135;-74
2023/07/15 02:42:43;;;;;;;7.05;3.45;;;;;;;18.89;91.23;99047.03;4961720;28;20120;-73
2023/07/15 02:45:10;;;;;;;4.53;3.27;;;;;;;18.90;91.59;99064.91;4967516;28;20145;-75
2023/07/15 02:47:36;;;;;;;5.90;3.47;;;;;;;18.87;91.14;99049.19;4961980;28;20542;-74
2023/07/15 02:50:05;;;;;;;7.00;3.47;;;;;;;18.87;91.13;99040.25;4969129;28;20179;-75
2023/07/15 02:52:35;;;;;;;7.10;3.67;;;;;;;18.86;90.96;99030.53;4965324;28;20038;-75
2023/07/15 02:55:01;;;;;;;4.43;3.35;;;;;;;18.81;91.00;99031.28;4964890;28;20031;-75
2023/07/15 02:57:30;;;;;;;6.38;3.33;;;;;;;18.75;91.69;99064.72;4963638;28;20491;-75
2023/07/15 02:59:56;;;;;;;12.43;4.00;;;;;;;18.78;91.04;99021.00;4959793;28;20532;-74
2023/07/15 03:02:22;;;;;;;6.68;3.22;;;;;;;18.79;90.85;99021.81;4961699;28;20151;-73
2023/07/15 03:04:48;;;;;;;4.55;2.83;;;;;;;18.75;90.70;99027.72;4961370;28;20049;-75
2023/07/15 03:07:14;;;;;;;6.90;3.50;;;;;;;18.73;90.87;99032.56;4964886;28;20027;-75
2023/07/15 03:09:40;;;;;;;6.82;3.65;;;;;;;18.79;90.42;99019.91;4959393;28;20034;-74
2023/07/15 03:12:08;;;;;;;4.87;2.90;;;;;;;18.74;90.99;99044.19;4976983;28;20025;-73
2023/07/15 03:14:34;;;;;;;6.93;3.55;;;;;;;18.74;90.61;99019.84;4963110;28;20427;-74
2023/07/15 03:17:00;;;;;;;7.30;3.65;;;;;;;18.71;90.82;99032.00;4966710;28;20034;-73
2023/07/15 03:19:25;;;;;;;4.40;3.25;;;;;;;18.72;90.43;99019.28;4958886;28;20090;-74
2023/07/15 03:21:50;;;;;;;7.17;3.40;;;;;;;18.70;90.81;99046.56;4961199;28;20043;-75
2023/07/15 03:24:18;;;;;;;6.75;3.05;;;;;;;18.63;91.40;99047.88;4964041;28;20551;-75
2023/07/15 03:26:43;;;;;;;6.43;4.15;;;;;;;18.67;91.03;99057.91;4961289;28;20026;-74
2023/07/15 03:29:09;;;;;;;5.53;3.08;;;;;;;18.69;91.07;99036.03;4962436;28;21016;-75
2023/07/15 03:31:39;;;;;;;6.05;3.60;;;;;;;18.66;91.15;99056.28;4966452;28;20027;-73
2023/07/15 03:34:05;;;;;;;9.30;4.13;;;;;;;18.63;90.95;99037.88;4966140;28;20045;-75
2023/07/15 03:36:33;;;;;;;6.22;3.15;;;;;;;18.69;90.85;99033.34;4962156;28;20019;-75
2023/07/15 03:39:02;;;;;;;4.32;3.08;;;;;;;18.58;90.99;99032.41;4965060;28;20039;-75
2023/07/15 03:41:27;;;;;;;5.30;3.40;;;;;;;18.58;91.83;99085.66;4965206;28;20031;-75
2023/07/15 03:43:52;;;;;;;9.10;3.03;;;;;;;18.58;91.71;99069.44;4965834;28;20440;-74
2023/07/15 03:46:18;;;;;;;8.17;3.17;;;;;;;18.52;91.44;99055.09;4965492;28;21178;-74
2023/07/15 03:48:43;;;;;;;7.50;3.37;;;;;;;18.64;91.05;99077.34;4960245;28;20965;-75
2023/07/15 03:51:09;;;;;;;4.13;2.97;;;;;;;18.60;91.52;99087.03;4960843;28;20274;-73
2023/07/15 03:53:35;;;;;;;5.70;3.20;;;;;;;18.59;91.47;99076.47;4976624;28;20030;-73
2023/07/15 03:56:01;;;;;;;5.47;3.13;;;;;;;18.61;91.63;99082.44;4959821;28;20560;-75
2023/07/15 03:58:26;;;;;;;7.10;3.15;;;;;;;18.64;91.19;99060.31;4964730;28;20067;-74
2023/07/15 04:00:51;;;;;;;7.80;3.33;;;;;;;18.60;91.49;99070.00;4961482;28;20027;-74
2023/07/15 04:03:17;;;;;;;5.73;3.80;;;;;;;18.58;92.34;99104.56;4963518;28;20038;-75
2023/07/15 04:05:42;;;;;;;4.80;3.13;;;;;;;18.52;91.71;99076.69;4962450;28;20027;-74
2023/07/15 04:08:07;;;;;;;4.40;2.80;;;;;;;18.56;92.23;99127.25;4947477;28;20041;-74
2023/07/15 04:10:33;;;;;;;4.03;2.90;;;;;;;18.54;91.63;99067.25;4962472;28;20077;-75
2023/07/15 04:12:58;;;;;;;5.73;2.80;;;;;;;18.48;91.96;99073.69;4948545;28;20031;-73
2023/07/15 04:15:23;;;;;;;4.80;3.43;;;;;;;18.45;91.97;99076.91;4963633;28;20039;-74
2023/07/15 04:17:49;;;;;;;5.37;3.23;;;;;;;18.45;92.21;99086.88;4960843;28;20041;-73
2023/07/15 04:20:17;;;;;;;6.70;3.50;;;;;;;18.54;92.33;99102.41;4944678;28;20543;-72
2023/07/15 04:22:43;;;;;;;5.22;3.25;;;;;;;18.60;91.47;99087.03;4958236;28;20421;-73
2023/07/15 04:25:10;;;;;;;5.43;3.20;;;;;;;18.68;91.61;99099.25;4958714;28;20015;-74
2023/07/15 04:27:38;;;;;;;9.05;3.22;;;;;;;18.71;91.31;99087.97;4960356;28;20102;-75
2023/07/15 04:30:04;;;;;;;7.57;4.15;;;;;;;18.79;90.46;99065.88;4960288;28;20370;-74
2023/07/15 04:32:29;;;;;;;5.57;3.33;;;;;;;18.97;91.04;99124.19;4960888;28;20510;-74
2023/07/15 04:34:55;;;;;;;6.88;3.75;;;;;;;19.08;89.80;99089.91;4963472;28;20031;-74
2023/07/15 04:37:20;;;;;;;7.17;3.17;;;;;;;19.15;89.66;99085.94;4962974;28;20492;-75
2023/07/15 04:39:45;;;;;;;6.13;3.87;;;;;;;19.16;89.06;99062.38;4959955;28;20054;-75
2023/07/15 04:42:11;;;;;;;5.50;3.20;;;;;;;19.08;88.95;99014.16;4962494;28;20034;-75
2023/07/15 04:44:36;;;;;;;11.37;3.07;;;;;;;19.02;89.17;99031.47;4961436;28;20037;-74
2023/07/15 04:47:02;;;;;;;4.10;3.00;;;;;;;19.06;89.66;99076.66;4961825;28;20095;-75
2023/07/15 04:49:27;;;;;;;6.00;3.60;;;;;;;19.04;89.93;99088.81;4959215;28;20085;-74
2023/07/15 04:51:53;;;;;;;5.07;3.40;;;;;;;19.09;89.49;99078.03;4959845;28;20043;-74
2023/07/15 04:54:18;;;;;;;6.33;4.00;;;;;;;19.24;89.76;99126.81;4959692;28;20026;-75
2023/07/15 04:56:44;;;;;;;5.23;3.30;;;;;;;19.29;88.33;99040.31;4962711;28;20039;-74
2023/07/15 04:59:09;;;;;;;6.78;3.05;;;;;;;19.59;88.12;99117.31;4963320;28;20031;-73
2023/07/15 05:01:35;;;;;;;5.67;3.30;;;;;;;19.44;86.63;99001.69;4962071;28;20039;-74
2023/07/15 05:04:01;;;;;;;4.47;3.55;;;;;;;19.43;87.05;99000.03;4959624;28;20127;-75
2023/07/15 05:06:31;;;;;;;5.55;3.50;;;;;;;19.41;86.42;98983.28;4961838;28;20507;-74
2023/07/15 05:08:57;;;;;;;6.68;3.50;;;;;;;19.37;87.46;99034.38;4960393;28;20488;-74
2023/07/15 05:11:24;;;;;;;7.07;3.42;;;;;;;19.26;87.68;99043.50;4977905;28;20125;-75
2023/07/15 05:13:50;;;;;;;5.20;3.67;;;;;;;19.24;87.90;99031.31;4956376;28;20031;-75
2023/07/15 05:16:15;;;;;;;4.45;3.10;;;;;;;19.18;88.02;99000.72;4942342;28;20035;-73
2023/07/15 05:18:41;;;;;;;5.30;3.10;;;;;;;19.24;87.49;99012.38;4957290;28;20452;-75
2023/07/15 05:21:07;;;;;;;3.90;3.17;;;;;;;19.43;87.18;99037.13;4962972;28;20030;-74
2023/07/15 05:23:32;;;;;;;6.53;3.72;;;;;;;19.69;87.58;99112.03;4963523;28;20023;-74
2023/07/15 05:26:01;;;;;;;6.15;3.58;;;;;;;19.93;86.15;99068.25;4958955;28;20071;-75
2023/07/15 05:28:30;;;;;;;5.68;3.10;;;;;;;20.17;84.69;99044.22;4962232;28;20031;-75
2023/07/15 05:31:05;;;;;;;10.05;3.63;;;;;;;20.32;83.41;98956.72;4957541;28;20516;-75
2023/07/15 05:33:30;;;;;;;6.75;3.47;;;;;;;20.45;83.09;99000.38;4959042;28;20038;-74
2023/07/15 05:36:00;;;;;;;4.78;3.20;;;;;;;20.90;80.91;98919.31;4961443;28;20070;-74
2023/07/15 05:38:26;;;;;;;6.75;3.00;;;;;;;21.49;79.63;98967.47;4962328;28;20031;-74
2023/07/15 05:40:53;;;;;;;4.47;2.92;;;;;;;22.06;77.69;98948.16;4966541;28;20069;-74
2023/07/15 05:43:19;;;;;;;8.70;3.38;;;;;;;22.71;74.89;98878.03;4964045;28;20038;-75
2023/07/15 05:45:45;;;;;;;4.07;2.75;;;;;;;23.43;71.75;98724.72;4963722;28;20070;-73
2023/07/15 05:48:11;;;;;;;;;;;;;;;22.49;72.44;98624.84;4964600;28;20034;-74
2023/07/15 05:50:37;;;;;;;4.07;3.38;;;;;;;22.01;73.06;98613.97;4964526;28;20307;-75
2023/07/15 05:53:03;;;;;;;6.75;3.70;;;;;;;21.61;74.50;98695.63;4963116;28;20568;-74
2023/07/15 05:55:28;;;;;;;;;;;;;;;21.10;75.70;98700.59;4968505;28;20058;-74
2023/07/15 05:57:53;;;;;;;6.32;3.30;;;;;;;21.13;76.79;98806.63;4969383;28;20399;-75
2023/07/15 06:00:19;;;;;;;5.30;2.80;;;;;;;21.62;76.05;98887.28;4969945;28;20113;-75
2023/07/15 06:02:44;;;;;;;8.68;3.15;;;;;;;21.70;75.97;98899.47;4968532;28;20047;-75
2023/07/15 06:05:10;;;;;;;3.73;2.57;;;;;;;21.63;76.48;98915.25;4969020;28;20032;-75
2023/07/15 06:07:35;;;;;;;5.40;3.77;;;;;;;21.97;75.95;98971.59;4969861;28;20042;-75
2023/07/15 06:10:01;;;;;;;7.60;3.13;;;;;;;22.17;76.11;99023.06;4967461;28;20023;-75
2023/07/15 06:12:26;;;;;;;7.72;3.58;;;;;;;22.03;75.12;98908.78;4968203;28;20357;-74
2023/07/15 06:14:52;;;;;;;5.67;3.23;;;;;;;21.81;74.09;98748.94;4968615;28;20105;-75
2023/07/15 06:17:17;;;;;;;4.73;3.00;;;;;;;22.71;72.75;98905.25;4961879;28;20038;-75
2023/07/15 06:19:42;;;;;;;5.80;2.87;;;;;;;22.91;72.17;98871.56;4969732;28;20038;-75
2023/07/15 06:22:08;;;;;;;5.87;3.57;;;;;;;23.47;70.36;98840.13;4968068;28;20730;-75
2023/07/15 06:24:34;;;;;;;5.60;3.17;;;;;;;23.98;68.45;98809.41;4968327;28;20049;-76
2023/07/15 06:26:59;;;;;;;5.80;3.70;;;;;;;24.54;65.87;98686.81;4969249;28;20522;-75
2023/07/15 06:29:24;;;;;;;5.63;2.80;;;;;;;24.78;65.71;98750.13;4965093;28;20031;-75
2023/07/15 06:31:50;;;;;;;4.15;3.00;;;;;;;25.55;63.84;98723.88;4963993;28;20337;-75
2023/07/15 06:34:16;;;;;;;8.07;3.05;;;;;;;24.83;64.56;98665.41;4966464;28;20042;-75
2023/07/15 06:36:41;;;;;;;5.30;2.83;;;;;;;25.32;62.30;98591.16;4969384;28;20041;-75
2023/07/15 06:39:06;;;;;;;6.20;2.92;;;;;;;25.40;61.11;98486.59;4969118;28;20026;-75
2023/07/15 06:41:32;;;;;;;4.57;2.63;;;;;;;24.66;60.75;98291.53;4968068;28;20038;-75
2023/07/15 06:43:57;;;;;;;6.30;2.53;;;;;;;24.77;61.48;98464.75;4968301;28;20042;-74
2023/07/15 06:46:25;;;;;;;5.47;2.60;;;;;;;25.38;59.72;98417.81;4952008;28;20274;-75
2023/07/15 06:48:50;;;;;;;6.40;2.60;;;;;;;25.13;59.73;98373.72;4966864;28;20037;-75
2023/07/15 06:51:16;;;;;;;6.53;3.20;;;;;;;24.66;59.71;98263.47;4969504;28;20043;-75
2023/07/15 06:53:41;;;;;;;6.90;2.93;;;;;;;24.28;61.13;98351.94;4960775;28;20035;-74
2023/07/15 06:56:06;;;;;;;5.90;2.80;;;;;;;24.78;60.37;98441.78;4967924;28;20035;-75
2023/07/15 06:58:32;;;;;;;5.93;3.70;;;;;;;24.81;61.20;98547.59;4961529;28;20028;-74
2023/07/15 07:00:57;;;;;;;5.97;2.73;;;;;;;24.32;61.02;98376.66;4967655;28;20439;-74
2023/07/15 07:03:23;;;;;;;7.47;3.20;;;;;;;24.19;62.22;98506.47;4962269;28;20027;-75
2023/07/15 07:05:48;;;;;;;4.45;2.88;;;;;;;23.92;62.66;98453.63;4964891;28;20286;-75
2023/07/15 07:08:13;;;;;;;4.93;3.83;;;;;;;23.50;63.68;98474.63;4967806;28;20035;-74
2023/07/15 07:10:39;;;;;;;6.30;3.10;;;;;;;22.89;64.66;98381.31;4968414;28;20089;-75
2023/07/15 07:13:04;;;;;;;5.80;3.33;;;;;;;22.66;65.76;98481.00;4967223;28;20799;-75
2023/07/15 07:15:30;;;;;;;7.88;3.20;;;;;;;22.80;66.78;98627.13;4961466;28;20035;-75
2023/07/15 07:17:56;;;;;;;5.72;2.80;;;;;;;23.26;67.15;98792.50;4961586;28;20039;-75
2023/07/15 07:20:21;;;;;;;8.03;2.87;;;;;;;23.70;66.23;98775.78;4967920;28;20399;-75
2023/07/15 07:22:49;;;;;;;6.47;3.22;;;;;;;24.75;64.74;98936.31;4966307;28;20340;-76
2023/07/15 07:25:14;;;;;;;5.10;2.97;;;;;;;25.80;62.45;98915.66;4966736;28;20039;-75
2023/07/15 07:27:40;;;;;;;3.40;2.53;;;;;;;25.22;62.01;98676.88;4967363;28;20491;-74
2023/07/15 07:30:06;;;;;;;6.10;3.13;;;;;;;25.42;61.31;98638.13;4951069;28;20399;-76
2023/07/15 07:32:31;;;;;;;4.97;2.92;;;;;;;25.58;59.98;98548.38;4967195;28;20353;-75
2023/07/15 07:34:58;;;;;;;5.03;3.10;;;;;;;25.60;59.67;98543.41;4966404;28;20134;-75
2023/07/15 07:37:23;;;;;;;6.30;2.60;;;;;;;25.30;59.41;98415.88;4954166;28;20028;-75
2023/07/15 07:39:49;;;;;;;5.15;2.67;;;;;;;26.15;59.07;98695.28;4960104;28;20039;-76
2023/07/15 07:42:14;;;;;;;5.22;2.90;;;;;;;26.72;58.13;98694.53;4960901;28;20035;-75
2023/07/15 07:44:40;;;;;;;5.30;2.72;;;;;;;26.59;57.64;98586.00;4963987;28;20030;-76
2023/07/15 07:47:05;;;;;;;5.05;2.70;;;;;;;26.41;57.83;98579.66;4967153;28;20043;-74
2023/07/15 07:49:31;;;;;;;9.13;3.13;;;;;;;26.38;57.82;98533.81;4960243;28;20070;-75
2023/07/15 07:51:56;;;;;;;6.65;3.10;;;;;;;26.95;57.01;98591.97;4962205;28;20105;-75
2023/07/15 07:54:21;;;;;;;6.03;2.83;;;;;;;26.77;57.12;98598.56;4967901;28;20037;-75
2023/07/15 07:56:47;;;;;;;7.23;2.87;;;;;;;27.30;56.02;98616.59;4967259;28;20946;-74
2023/07/15 07:59:12;;;;;;;3.35;2.45;;;;;;;28.10;55.35;98753.16;4959765;28;20440;-74
2023/07/15 08:01:37;;;;;;;3.15;2.22;;;;;;;27.65;53.28;98287.63;4967241;28;20085;-74
2023/07/15 08:04:03;;;;;;;3.20;2.83;;;;;;;27.25;52.82;98136.63;4961849;28;20031;-74
2023/07/15 08:06:29;;;;;;;3.22;2.10;;;;;;;26.99;54.23;98270.97;4966407;28;20559;-73
2023/07/15 08:08:54;;;;;;;5.47;2.78;;;;;;;27.60;53.61;98421.28;4965199;28;20027;-73
2023/07/15 08:11:20;;;;;;;4.60;2.17;;;;;;;27.76;53.16;98409.41;4947309;28;20027;-74
2023/07/15 08:13:45;;;;;;;4.45;2.45;;;;;;;27.73;51.96;98247.56;4966194;28;20042;-74
2023/07/15 08:16:37;;;;;;;3.75;2.10;;;;;;;28.12;52.78;98454.69;4962802;28;20028;-75
2023/07/15 08:19:04;;;;;;;6.90;3.08;;;;;;;27.99;51.98;98261.03;4980565;28;20039;-73
2023/07/15 08:21:30;;;;;;;3.13;2.28;;;;;;;28.33;51.99;98440.13;4965155;28;20058;-75
2023/07/15 08:23:55;;;;;;;;;;;;;;;27.88;51.79;98207.78;4958771;28;20496;-74
2023/07/15 08:26:22;;;;;;;5.83;2.53;;;;;;;28.24;51.47;98360.66;4965369;28;19925;-74
2023/07/15 08:28:47;;;;;;;6.50;2.15;;;;;;;27.78;51.14;98077.41;4964447;28;20281;-73
2023/07/15 08:31:12;;;;;;;5.68;2.70;;;;;;;28.02;50.73;98189.06;4966429;28;20030;-73
2023/07/15 08:33:38;;;;;;;;;;;;;;;28.15;50.88;98209.88;4955894;28;20133;-73
2023/07/15 08:36:03;;;;;;;2.93;2.33;;;;;;;28.36;50.95;98318.75;4965840;28;19914;-74
2023/07/15 08:38:31;;;;;;;;;;;;;;;28.41;50.11;98195.06;4964457;28;20041;-75
2023/07/15 08:40:59;;;;;;;4.93;2.20;;;;;;;28.59;50.44;98338.38;4981974;28;19910;-74
2023/07/15 08:43:24;;;;;;;5.97;2.85;;;;;;;28.22;49.55;98063.97;4965878;28;20400;-75
2023/07/15 08:45:54;;;;;;;7.50;2.47;;;;;;;28.41;50.93;98362.44;4965224;28;20038;-74
2023/07/15 08:48:19;;;;;;;7.10;2.92;;;;;;;29.30;49.88;98479.25;4964306;28;20026;-74
2023/07/15 08:50:46;;;;;;;4.18;2.40;;;;;;;28.82;48.92;98155.59;4963381;28;20604;-74
2023/07/15 08:53:14;;;;;;;6.95;2.40;;;;;;;28.65;49.79;98234.66;4966127;28;20093;-74
2023/07/15 08:55:41;;;;;;;5.10;2.42;;;;;;;28.52;49.21;98144.09;4965808;28;20500;-74
2023/07/15 08:58:07;;;;;;;7.80;2.40;;;;;;;28.66;49.03;98137.44;4962332;28;20051;-74
2023/07/15 09:00:32;;;;;;;8.65;2.33;;;;;;;28.58;48.79;98087.00;4953111;28;20485;-74
2023/07/15 09:02:58;;;;;;;5.60;2.60;;;;;;;28.88;50.23;98414.25;4962222;28;20059;-73
2023/07/15 09:05:23;;;;;;;;;;;;;;;28.90;48.79;98109.13;4961020;28;20022;-74
2023/07/15 09:07:57;;;;;;;6.57;2.40;;;;;;;29.41;48.48;98319.06;4957019;28;19918;-73
2023/07/15 09:10:22;;;;;;;5.00;2.60;;;;;;;28.70;47.62;97874.81;4961092;28;20031;-74
2023/07/15 09:12:53;;;;;;;4.22;2.53;;;;;;;29.41;47.95;98288.03;4962448;28;20716;-73
2023/07/15 09:15:18;;;;;;;5.10;2.88;;;;;;;29.40;48.24;98243.25;4963206;28;20081;-74
2023/07/15 09:17:55;;;;;;;5.47;2.50;;;;;;;29.24;48.18;98168.19;4961643;28;20062;-74
2023/07/15 09:20:25;;;;;;;3.15;2.10;;;;;;;29.48;48.14;98266.25;4960984;28;20097;-73
2023/07/15 09:22:55;;;;;;;4.22;2.58;;;;;;;30.22;47.08;98370.50;4948939;28;20043;-73
2023/07/15 09:25:24;;;;;;;5.53;2.35;;;;;;;30.20;47.16;98351.59;4951191;28;20027;-73
2023/07/15 09:27:50;;;;;;;5.75;2.67;;;;;;;28.85;48.83;98098.41;4965712;28;20054;-74
2023/07/15 09:30:16;;;;;;;;;;;;;;;29.97;47.55;98420.13;4966990;28;20027;-73
2023/07/15 09:32:41;;;;;;;6.07;2.60;;;;;;;30.14;47.28;98360.47;4964813;28;19910;-73
2023/07/15 09:35:07;;;;;;;;;;;;;;;30.77;47.07;98582.88;4962133;28;20034;-73
2023/07/15 09:37:33;;;;;;;5.43;2.53;;;;;;;30.39;46.11;98143.72;4964905;28;19910;-74
2023/07/15 09:40:00;;;;;;;5.43;2.70;;;;;;;30.23;46.81;98264.81;4964813;28;20038;-75
2023/07/15 09:42:29;;;;;;;5.68;2.72;;;;;;;30.61;46.52;98373.56;4977773;28;20027;-73
2023/07/15 09:44:55;;;;;;;3.40;2.10;;;;;;;31.18;45.37;98383.25;4965912;28;20496;-73
2023/07/15 09:47:21;;;;;;;6.07;2.38;;;;;;;31.47;45.68;98489.53;4946037;28;20110;-73
2023/07/15 09:49:46;;;;;;;;;;;;;;;30.69;45.48;98142.06;4955817;28;20122;-73
2023/07/15 09:52:14;;;;;;;3.05;2.35;;;;;;;31.10;45.36;98332.69;4975214;28;20323;-74
2023/07/15 09:54:42;;;;;;;5.50;2.28;;;;;;;31.06;43.97;98074.78;4961221;28;20074;-74
2023/07/15 09:57:15;;;;;;;3.03;2.20;;;;;;;31.08;44.84;98233.06;4965701;28;20022;-74
2023/07/15 09:59:52;;;;;;;7.10;2.10;;;;;;;31.64;43.90;98236.63;4953193;28;20043;-74
2023/07/15 10:02:31;;;;;;;7.05;2.22;;;;;;;32.12;42.69;98237.16;4964553;28;20497;-74
2023/07/15 10:05:02;;;;;;;3.75;1.90;;;;;;;31.44;42.44;97842.41;4955622;28;20521;-73
2023/07/15 10:07:29;;;;;;;11.98;2.78;;;;;;;31.59;42.63;98025.41;4958789;28;20026;-74
2023/07/15 10:09:55;;;;;;;7.75;2.42;;;;;;;31.09;42.36;97760.78;4950610;28;20036;-74
2023/07/15 10:12:21;;;;;;;5.30;2.08;;;;;;;30.93;43.32;97889.63;4956757;28;20034;-74
2023/07/15 10:14:46;;;;;;;;;;;;;;;31.72;43.76;98274.19;4962474;28;20031;-74
2023/07/15 10:17:14;;;;;;;;;;;;;;;32.72;41.71;98272.50;4961885;28;19922;-74
2023/07/15 10:19:42;;;;;;;5.18;2.30;;;;;;;31.42;43.16;98015.66;4964032;28;19914;-74
2023/07/15 10:22:12;;;;;;;3.97;2.05;;;;;;;31.44;43.24;98035.38;4958084;28;20066;-73
2023/07/15 10:24:42;;;;;;;3.20;2.13;;;;;;;32.01;42.60;98183.72;4967695;28;20039;-74
2023/07/15 10:27:10;;;;;;;9.00;2.67;;;;;;;31.96;43.20;98174.59;4957625;28;20031;-72
2023/07/15 10:29:40;;;;;;;4.32;2.08;;;;;;;31.81;44.30;98331.91;4966270;28;20018;-74
2023/07/15 10:32:10;;;;;;;3.58;2.60;;;;;;;31.32;43.91;98046.53;4967601;28;20038;-74
2023/07/15 10:34:38;;;;;;;2.95;2.20;;;;;;;31.44;43.84;98133.81;4963175;28;20034;-74
2023/07/15 10:37:09;;;;;;;7.20;2.53;;;;;;;31.17;43.61;97978.56;4960593;28;20026;-74
2023/07/15 10:39:35;;;;;;;3.28;2.42;;;;;;;31.57;44.12;98175.81;4954442;28;20035;-74
2023/07/15 10:42:26;;;;;;;;;;;;;;;31.03;43.61;97891.75;4968408;28;20027;-75
2023/07/15 10:44:54;;;;;;;3.60;2.08;;;;;;;32.52;42.61;98325.06;4960103;28;19981;-73
2023/07/15 10:47:20;;;;;;;4.78;1.90;;;;;;;32.57;42.07;98214.28;4965631;28;20107;-74
2023/07/15 10:49:47;;;;;;;3.50;1.85;;;;;;;32.45;41.86;98084.69;4965870;28;20035;-74
2023/07/15 10:52:18;;;;;;;5.43;2.00;;;;;;;32.49;41.68;98007.41;4960700;28;20109;-75
2023/07/15 10:54:44;;;;;;;4.85;1.95;;;;;;;32.24;42.21;98082.41;4958823;28;20039;-74
2023/07/15 10:57:14;;;;;;;;;;;;;;;33.10;41.51;98281.78;4961521;28;20030;-74
2023/07/15 10:59:44;;;;;;;7.70;2.30;;;;;;;32.62;41.20;97978.44;4965761;28;19949;-74
2023/07/15 11:02:10;;;;;;;2.78;2.22;;;;;;;33.19;42.01;98366.03;4967016;28;20416;-74
2023/07/15 11:04:38;;;;;;;4.93;1.60;;;;;;;33.14;40.39;98003.50;4966213;28;20026;-73
2023/07/15 11:07:11;;;;;;;2.30;1.70;;;;;;;32.97;41.08;98032.50;4964175;28;20137;-74
2023/07/15 11:09:40;;;;;;;6.22;2.05;;;;;;;33.41;40.18;98104.47;4965424;28;20034;-74
2023/07/15 11:12:08;;;;;;;3.38;1.80;;;;;;;33.73;40.43;98200.06;4965493;28;20596;-74
2023/07/15 11:14:33;;;;;;;3.47;2.03;;;;;;;33.06;40.68;97896.81;4963078;28;20027;-74
2023/07/15 11:17:01;;;;;;;3.13;2.45;;;;;;;33.57;40.25;98048.94;4966321;28;20034;-75
2023/07/15 11:19:29;;;;;;;2.75;2.05;;;;;;;32.41;41.14;97774.66;4967230;28;20031;-74
2023/07/15 11:21:56;;;;;;;2.55;2.35;;;;;;;32.99;40.64;97986.72;4950390;28;20066;-74
2023/07/15 11:24:23;;;;;;;5.25;2.00;;;;;;;32.94;40.77;97940.13;4966116;28;20507;-74
2023/07/15 11:26:49;;;;;;;2.97;1.80;;;;;;;33.33;40.12;97966.53;4967267;28;20023;-74
2023/07/15 11:29:24;;;;;;;4.57;1.80;;;;;;;33.51;39.88;98002.66;4968260;28;20026;-74
2023/07/15 11:31:52;;;;;;;7.50;2.07;;;;;;;33.97;40.69;98354.47;4966623;28;20043;-74